sensor_id;sensor_type;location;lat;lon;timestamp;temperature;humidity
14779;DHT22;7481;53.750;10.570;2022-07-18T00:01:58;15.30;99.90
14779;DHT22;7481;53.750;10.570;2022-07-18T00:04:26;15.20;99.90
14779;DHT22;7481;53.750;10.570;2022-07-18T00:06:54;14.70;99.90
14779;DHT22;7481;53.750;10.570;2022-07-18T00:09:21;15.10;99.90
14779;DHT22;7481;53.750;10.570;2022-07-18T00:11:51;15.10;99.90
14779;DHT22;7481;53.750;10.570;2022-07-18T00:14:19;15.00;99.90
14779;DHT22;7481;53.750;10.570;2022-07-18T00:16:47;15.00;99.90
14779;DHT22;7481;53.750;10.570;2022-07-18T00:19:15;15.10;99.90
14779;DHT22;7481;53.750;10.570;2022-07-18T00:21:43;15.30;99.90
14779;DHT22;7481;53.750;10.570;2022-07-18T00:24:10;15.20;99.90
14779;DHT22;7481;53.750;10.570;2022-07-18T00:26:37;15.10;99.90
14779;DHT22;7481;53.750;10.570;2022-07-18T00:29:04;15.10;99.90
14779;DHT22;7481;53.750;10.570;2022-07-18T00:31:32;15.10;99.90
14779;DHT22;7481;53.750;10.570;2022-07-18T00:33:59;15.20;99.90
14779;DHT22;7481;53.750;10.570;2022-07-18T00:36:27;15.30;99.90
14779;DHT22;7481;53.750;10.570;2022-07-18T00:38:55;15.10;99.90
14779;DHT22;7481;53.750;10.570;2022-07-18T00:41:22;15.30;99.90
14779;DHT22;7481;53.750;10.570;2022-07-18T00:43:50;15.30;99.90
14779;DHT22;7481;53.750;10.570;2022-07-18T00:46:24;13.70;99.90
14779;DHT22;7481;53.750;10.570;2022-07-18T00:48:52;15.40;99.90
14779;DHT22;7481;53.750;10.570;2022-07-18T00:51:20;15.40;99.90
14779;DHT22;7481;53.750;10.570;2022-07-18T00:53:48;15.50;99.90
14779;DHT22;7481;53.750;10.570;2022-07-18T00:56:17;15.60;99.90
14779;DHT22;7481;53.750;10.570;2022-07-18T00:58:44;15.30;99.90
14779;DHT22;7481;53.750;10.570;2022-07-18T01:01:12;15.20;99.90
14779;DHT22;7481;53.750;10.570;2022-07-18T01:03:57;15.10;99.90
14779;DHT22;7481;53.750;10.570;2022-07-18T01:06:24;15.00;99.90
14779;DHT22;7481;53.750;10.570;2022-07-18T01:08:51;15.00;99.90
14779;DHT22;7481;53.750;10.570;2022-07-18T01:11:18;15.00;99.90
14779;DHT22;7481;53.750;10.570;2022-07-18T01:13:45;15.00;99.90
14779;DHT22;7481;53.750;10.570;2022-07-18T01:16:15;14.90;99.90
14779;DHT22;7481;53.750;10.570;2022-07-18T01:18:50;14.90;99.90
14779;DHT22;7481;53.750;10.570;2022-07-18T01:21:17;14.80;99.90
14779;DHT22;7481;53.750;10.570;2022-07-18T01:23:44;15.00;99.90
14779;DHT22;7481;53.750;10.570;2022-07-18T01:26:13;14.90;99.90
14779;DHT22;7481;53.750;10.570;2022-07-18T01:28:41;15.00;99.90
14779;DHT22;7481;53.750;10.570;2022-07-18T01:31:08;14.90;99.90
14779;DHT22;7481;53.750;10.570;2022-07-18T01:33:35;14.90;99.90
14779;DHT22;7481;53.750;10.570;2022-07-18T01:36:04;14.70;99.90
14779;DHT22;7481;53.750;10.570;2022-07-18T01:38:33;14.80;99.90
14779;DHT22;7481;53.750;10.570;2022-07-18T01:41:00;14.70;99.90
14779;DHT22;7481;53.750;10.570;2022-07-18T01:43:28;14.50;99.90
14779;DHT22;7481;53.750;10.570;2022-07-18T01:45:55;14.50;99.90
14779;DHT22;7481;53.750;10.570;2022-07-18T01:48:23;14.70;99.90
14779;DHT22;7481;53.750;10.570;2022-07-18T01:50:51;14.50;99.90
14779;DHT22;7481;53.750;10.570;2022-07-18T01:53:18;14.70;99.90
14779;DHT22;7481;53.750;10.570;2022-07-18T01:55:45;14.70;99.90
14779;DHT22;7481;53.750;10.570;2022-07-18T01:58:12;14.60;99.90
14779;DHT22;7481;53.750;10.570;2022-07-18T02:00:39;14.30;99.90
14779;DHT22;7481;53.750;10.570;2022-07-18T02:03:06;15.10;99.90
14779;DHT22;7481;53.750;10.570;2022-07-18T02:05:34;14.40;99.90
14779;DHT22;7481;53.750;10.570;2022-07-18T02:08:01;14.60;99.90
14779;DHT22;7481;53.750;10.570;2022-07-18T02:10:28;14.60;99.90
14779;DHT22;7481;53.750;10.570;2022-07-18T02:12:55;14.70;99.90
14779;DHT22;7481;53.750;10.570;2022-07-18T02:15:22;15.20;99.90
14779;DHT22;7481;53.750;10.570;2022-07-18T02:17:50;14.70;99.90
14779;DHT22;7481;53.750;10.570;2022-07-18T02:20:17;14.70;99.90
14779;DHT22;7481;53.750;10.570;2022-07-18T02:22:44;14.80;99.90
14779;DHT22;7481;53.750;10.570;2022-07-18T02:25:11;14.80;99.90
14779;DHT22;7481;53.750;10.570;2022-07-18T02:27:38;14.90;99.90
14779;DHT22;7481;53.750;10.570;2022-07-18T02:30:07;14.80;99.90
14779;DHT22;7481;53.750;10.570;2022-07-18T02:32:35;14.90;99.90
14779;DHT22;7481;53.750;10.570;2022-07-18T02:35:06;14.80;99.90
14779;DHT22;7481;53.750;10.570;2022-07-18T02:37:34;15.00;99.90
14779;DHT22;7481;53.750;10.570;2022-07-18T02:40:01;15.10;99.90
14779;DHT22;7481;53.750;10.570;2022-07-18T02:42:28;15.10;99.90
14779;DHT22;7481;53.750;10.570;2022-07-18T02:44:56;14.90;99.90
14779;DHT22;7481;53.750;10.570;2022-07-18T02:47:23;14.90;99.90
14779;DHT22;7481;53.750;10.570;2022-07-18T02:49:49;14.90;99.90
14779;DHT22;7481;53.750;10.570;2022-07-18T02:52:16;14.90;99.90
14779;DHT22;7481;53.750;10.570;2022-07-18T02:54:43;14.80;99.90
14779;DHT22;7481;53.750;10.570;2022-07-18T02:57:10;14.80;99.90
14779;DHT22;7481;53.750;10.570;2022-07-18T02:59:37;14.70;99.90
14779;DHT22;7481;53.750;10.570;2022-07-18T03:02:04;14.60;99.90
14779;DHT22;7481;53.750;10.570;2022-07-18T03:04:32;14.70;99.90
14779;DHT22;7481;53.750;10.570;2022-07-18T03:06:59;14.70;99.90
14779;DHT22;7481;53.750;10.570;2022-07-18T03:09:26;14.70;99.90
14779;DHT22;7481;53.750;10.570;2022-07-18T03:11:55;14.90;99.90
14779;DHT22;7481;53.750;10.570;2022-07-18T03:14:22;14.80;99.90
14779;DHT22;7481;53.750;10.570;2022-07-18T03:16:50;14.90;99.90
14779;DHT22;7481;53.750;10.570;2022-07-18T03:19:17;14.70;99.90
14779;DHT22;7481;53.750;10.570;2022-07-18T03:21:44;14.80;99.90
14779;DHT22;7481;53.750;10.570;2022-07-18T03:24:11;14.60;99.90
14779;DHT22;7481;53.750;10.570;2022-07-18T03:26:40;14.70;99.90
14779;DHT22;7481;53.750;10.570;2022-07-18T03:29:09;14.80;99.90
14779;DHT22;7481;53.750;10.570;2022-07-18T03:31:36;14.70;99.90
14779;DHT22;7481;53.750;10.570;2022-07-18T03:34:03;14.70;99.90
14779;DHT22;7481;53.750;10.570;2022-07-18T03:36:30;14.80;99.90
14779;DHT22;7481;53.750;10.570;2022-07-18T03:38:58;14.80;99.90
14779;DHT22;7481;53.750;10.570;2022-07-18T03:41:25;14.70;99.90
14779;DHT22;7481;53.750;10.570;2022-07-18T03:43:52;14.70;99.90
14779;DHT22;7481;53.750;10.570;2022-07-18T03:46:19;14.90;99.90
14779;DHT22;7481;53.750;10.570;2022-07-18T03:48:46;14.70;99.90
14779;DHT22;7481;53.750;10.570;2022-07-18T03:51:14;14.10;99.90
14779;DHT22;7481;53.750;10.570;2022-07-18T03:53:41;14.90;99.90
14779;DHT22;7481;53.750;10.570;2022-07-18T03:56:08;14.80;99.90
14779;DHT22;7481;53.750;10.570;2022-07-18T03:58:35;15.10;99.90
14779;DHT22;7481;53.750;10.570;2022-07-18T04:01:03;15.10;99.90
14779;DHT22;7481;53.750;10.570;2022-07-18T04:03:31;15.30;99.90
14779;DHT22;7481;53.750;10.570;2022-07-18T04:05:58;15.30;99.90
14779;DHT22;7481;53.750;10.570;2022-07-18T04:08:25;15.20;99.90
14779;DHT22;7481;53.750;10.570;2022-07-18T04:10:52;15.40;99.90
14779;DHT22;7481;53.750;10.570;2022-07-18T04:13:19;15.30;99.90
14779;DHT22;7481;53.750;10.570;2022-07-18T04:15:46;16.00;99.90
14779;DHT22;7481;53.750;10.570;2022-07-18T04:18:13;15.80;99.90
14779;DHT22;7481;53.750;10.570;2022-07-18T04:20:40;15.80;99.90
14779;DHT22;7481;53.750;10.570;2022-07-18T04:23:09;15.80;99.90
14779;DHT22;7481;53.750;10.570;2022-07-18T04:25:41;15.80;99.90
14779;DHT22;7481;53.750;10.570;2022-07-18T04:28:10;15.70;99.90
14779;DHT22;7481;53.750;10.570;2022-07-18T04:30:38;15.70;99.90
14779;DHT22;7481;53.750;10.570;2022-07-18T04:33:07;15.70;99.90
14779;DHT22;7481;53.750;10.570;2022-07-18T04:35:34;15.90;99.90
14779;DHT22;7481;53.750;10.570;2022-07-18T04:38:03;16.00;99.90
14779;DHT22;7481;53.750;10.570;2022-07-18T04:40:30;15.30;99.90
14779;DHT22;7481;53.750;10.570;2022-07-18T04:42:58;15.70;99.90
14779;DHT22;7481;53.750;10.570;2022-07-18T04:45:25;15.80;99.90
14779;DHT22;7481;53.750;10.570;2022-07-18T04:47:53;15.90;99.90
14779;DHT22;7481;53.750;10.570;2022-07-18T04:50:22;16.00;99.90
14779;DHT22;7481;53.750;10.570;2022-07-18T04:52:49;16.00;99.90
14779;DHT22;7481;53.750;10.570;2022-07-18T04:55:18;16.10;99.90
14779;DHT22;7481;53.750;10.570;2022-07-18T04:57:46;16.00;99.90
14779;DHT22;7481;53.750;10.570;2022-07-18T05:00:15;16.00;99.90
14779;DHT22;7481;53.750;10.570;2022-07-18T05:02:44;16.30;99.90
14779;DHT22;7481;53.750;10.570;2022-07-18T05:05:13;16.20;99.90
14779;DHT22;7481;53.750;10.570;2022-07-18T05:07:41;16.20;99.90
14779;DHT22;7481;53.750;10.570;2022-07-18T05:10:10;16.30;99.90
14779;DHT22;7481;53.750;10.570;2022-07-18T05:12:40;16.30;99.90
14779;DHT22;7481;53.750;10.570;2022-07-18T05:15:10;16.30;99.90
14779;DHT22;7481;53.750;10.570;2022-07-18T05:17:38;16.40;99.90
14779;DHT22;7481;53.750;10.570;2022-07-18T05:20:06;16.40;99.90
14779;DHT22;7481;53.750;10.570;2022-07-18T05:22:35;16.50;99.90
14779;DHT22;7481;53.750;10.570;2022-07-18T05:25:03;16.70;99.90
14779;DHT22;7481;53.750;10.570;2022-07-18T05:27:30;16.80;99.90
14779;DHT22;7481;53.750;10.570;2022-07-18T05:29:58;16.70;99.90
14779;DHT22;7481;53.750;10.570;2022-07-18T05:32:28;16.80;99.90
14779;DHT22;7481;53.750;10.570;2022-07-18T05:34:55;16.90;99.90
14779;DHT22;7481;53.750;10.570;2022-07-18T05:37:22;16.90;99.90
14779;DHT22;7481;53.750;10.570;2022-07-18T05:39:49;16.90;99.90
14779;DHT22;7481;53.750;10.570;2022-07-18T05:42:18;17.00;99.90
14779;DHT22;7481;53.750;10.570;2022-07-18T05:45:06;17.20;99.90
14779;DHT22;7481;53.750;10.570;2022-07-18T05:47:33;17.30;99.90
14779;DHT22;7481;53.750;10.570;2022-07-18T05:50:00;17.40;99.90
14779;DHT22;7481;53.750;10.570;2022-07-18T05:52:27;17.40;99.90
14779;DHT22;7481;53.750;10.570;2022-07-18T05:54:54;17.60;99.90
14779;DHT22;7481;53.750;10.570;2022-07-18T05:57:21;17.50;99.90
14779;DHT22;7481;53.750;10.570;2022-07-18T05:59:48;17.70;99.90
14779;DHT22;7481;53.750;10.570;2022-07-18T06:02:15;18.00;99.90
14779;DHT22;7481;53.750;10.570;2022-07-18T06:04:42;18.30;99.90
14779;DHT22;7481;53.750;10.570;2022-07-18T06:07:29;18.60;99.90
14779;DHT22;7481;53.750;10.570;2022-07-18T06:09:56;19.10;99.90
14779;DHT22;7481;53.750;10.570;2022-07-18T06:12:23;19.50;99.90
14779;DHT22;7481;53.750;10.570;2022-07-18T06:14:50;19.90;99.90
14779;DHT22;7481;53.750;10.570;2022-07-18T06:17:17;20.00;99.90
14779;DHT22;7481;53.750;10.570;2022-07-18T06:19:44;19.80;99.90
14779;DHT22;7481;53.750;10.570;2022-07-18T06:22:11;19.40;99.90
14779;DHT22;7481;53.750;10.570;2022-07-18T06:24:38;19.50;99.90
14779;DHT22;7481;53.750;10.570;2022-07-18T06:27:05;19.40;99.90
14779;DHT22;7481;53.750;10.570;2022-07-18T06:29:32;19.50;99.90
14779;DHT22;7481;53.750;10.570;2022-07-18T06:31:59;19.50;99.90
14779;DHT22;7481;53.750;10.570;2022-07-18T06:34:26;19.70;99.90
14779;DHT22;7481;53.750;10.570;2022-07-18T06:36:53;19.90;99.90
14779;DHT22;7481;53.750;10.570;2022-07-18T06:39:19;20.20;99.90
14779;DHT22;7481;53.750;10.570;2022-07-18T06:41:46;20.50;99.90
14779;DHT22;7481;53.750;10.570;2022-07-18T06:44:14;21.20;99.90
14779;DHT22;7481;53.750;10.570;2022-07-18T06:46:41;21.70;99.90
14779;DHT22;7481;53.750;10.570;2022-07-18T06:49:08;21.70;99.90
14779;DHT22;7481;53.750;10.570;2022-07-18T06:51:36;21.60;99.90
14779;DHT22;7481;53.750;10.570;2022-07-18T06:54:03;21.20;99.90
14779;DHT22;7481;53.750;10.570;2022-07-18T06:56:30;20.90;99.90
14779;DHT22;7481;53.750;10.570;2022-07-18T06:58:57;20.60;99.90
14779;DHT22;7481;53.750;10.570;2022-07-18T07:01:24;20.40;99.90
14779;DHT22;7481;53.750;10.570;2022-07-18T07:03:51;20.10;99.90
14779;DHT22;7481;53.750;10.570;2022-07-18T07:06:18;20.40;99.90
14779;DHT22;7481;53.750;10.570;2022-07-18T07:08:46;21.00;99.90
14779;DHT22;7481;53.750;10.570;2022-07-18T07:11:13;21.30;99.90
14779;DHT22;7481;53.750;10.570;2022-07-18T07:13:40;21.60;99.90
14779;DHT22;7481;53.750;10.570;2022-07-18T07:16:07;21.50;99.90
14779;DHT22;7481;53.750;10.570;2022-07-18T07:18:34;21.30;99.90
14779;DHT22;7481;53.750;10.570;2022-07-18T07:21:01;21.60;99.90
14779;DHT22;7481;53.750;10.570;2022-07-18T07:23:28;21.40;99.90
14779;DHT22;7481;53.750;10.570;2022-07-18T07:25:55;21.30;99.90
14779;DHT22;7481;53.750;10.570;2022-07-18T07:28:23;21.40;99.90
14779;DHT22;7481;53.750;10.570;2022-07-18T07:30:51;21.60;99.90
14779;DHT22;7481;53.750;10.570;2022-07-18T07:33:18;22.40;99.90
14779;DHT22;7481;53.750;10.570;2022-07-18T07:35:45;23.20;99.90
14779;DHT22;7481;53.750;10.570;2022-07-18T07:38:12;23.80;99.90
14779;DHT22;7481;53.750;10.570;2022-07-18T07:40:48;24.10;99.90
14779;DHT22;7481;53.750;10.570;2022-07-18T07:43:16;24.50;99.90
14779;DHT22;7481;53.750;10.570;2022-07-18T07:45:47;24.50;99.90
14779;DHT22;7481;53.750;10.570;2022-07-18T07:48:16;24.10;99.90
14779;DHT22;7481;53.750;10.570;2022-07-18T07:50:43;24.00;99.90
14779;DHT22;7481;53.750;10.570;2022-07-18T07:53:11;23.90;99.90
14779;DHT22;7481;53.750;10.570;2022-07-18T07:55:38;24.00;99.90
14779;DHT22;7481;53.750;10.570;2022-07-18T07:58:05;24.10;99.90
14779;DHT22;7481;53.750;10.570;2022-07-18T08:00:32;24.40;99.90
14779;DHT22;7481;53.750;10.570;2022-07-18T08:03:02;24.60;99.90
14779;DHT22;7481;53.750;10.570;2022-07-18T08:05:34;25.40;99.90
14779;DHT22;7481;53.750;10.570;2022-07-18T08:08:02;27.00;99.90
14779;DHT22;7481;53.750;10.570;2022-07-18T08:10:29;26.00;99.90
14779;DHT22;7481;53.750;10.570;2022-07-18T08:12:58;25.70;99.90
14779;DHT22;7481;53.750;10.570;2022-07-18T08:15:25;25.00;99.90
14779;DHT22;7481;53.750;10.570;2022-07-18T08:17:53;25.20;99.90
14779;DHT22;7481;53.750;10.570;2022-07-18T08:20:21;25.40;99.90
14779;DHT22;7481;53.750;10.570;2022-07-18T08:22:55;25.70;99.90
14779;DHT22;7481;53.750;10.570;2022-07-18T08:25:23;25.50;99.90
14779;DHT22;7481;53.750;10.570;2022-07-18T08:27:50;25.40;99.90
14779;DHT22;7481;53.750;10.570;2022-07-18T08:30:18;25.30;99.90
14779;DHT22;7481;53.750;10.570;2022-07-18T08:32:45;25.40;99.90
14779;DHT22;7481;53.750;10.570;2022-07-18T08:35:13;25.30;99.90
14779;DHT22;7481;53.750;10.570;2022-07-18T08:37:40;25.40;99.90
14779;DHT22;7481;53.750;10.570;2022-07-18T08:40:11;25.70;99.90
14779;DHT22;7481;53.750;10.570;2022-07-18T08:42:46;25.80;99.90
14779;DHT22;7481;53.750;10.570;2022-07-18T08:45:45;25.70;99.90
14779;DHT22;7481;53.750;10.570;2022-07-18T08:48:19;25.50;99.90
14779;DHT22;7481;53.750;10.570;2022-07-18T08:51:10;25.20;99.90
14779;DHT22;7481;53.750;10.570;2022-07-18T08:53:46;26.60;99.90
14779;DHT22;7481;53.750;10.570;2022-07-18T08:56:23;26.10;99.90
14779;DHT22;7481;53.750;10.570;2022-07-18T08:58:52;27.30;99.90
14779;DHT22;7481;53.750;10.570;2022-07-18T09:01:24;26.20;99.90
14779;DHT22;7481;53.750;10.570;2022-07-18T09:03:52;26.90;99.90
14779;DHT22;7481;53.750;10.570;2022-07-18T09:06:50;27.00;99.90
14779;DHT22;7481;53.750;10.570;2022-07-18T09:09:21;26.70;99.90
14779;DHT22;7481;53.750;10.570;2022-07-18T09:12:09;27.50;99.90
14779;DHT22;7481;53.750;10.570;2022-07-18T09:14:44;28.40;99.90
14779;DHT22;7481;53.750;10.570;2022-07-18T09:17:26;28.00;99.90
14779;DHT22;7481;53.750;10.570;2022-07-18T09:20:28;27.40;99.90
14779;DHT22;7481;53.750;10.570;2022-07-18T09:23:12;26.70;99.90
14779;DHT22;7481;53.750;10.570;2022-07-18T09:25:39;26.00;99.90
14779;DHT22;7481;53.750;10.570;2022-07-18T09:28:09;26.00;99.90
14779;DHT22;7481;53.750;10.570;2022-07-18T09:30:36;25.80;99.90
14779;DHT22;7481;53.750;10.570;2022-07-18T09:35:44;25.60;99.90
14779;DHT22;7481;53.750;10.570;2022-07-18T09:38:14;25.80;99.90
14779;DHT22;7481;53.750;10.570;2022-07-18T09:40:48;25.40;99.90
14779;DHT22;7481;53.750;10.570;2022-07-18T09:43:18;26.40;99.90
14779;DHT22;7481;53.750;10.570;2022-07-18T09:45:50;25.90;99.90
14779;DHT22;7481;53.750;10.570;2022-07-18T09:48:22;26.10;99.90
14779;DHT22;7481;53.750;10.570;2022-07-18T09:50:57;26.80;99.90
14779;DHT22;7481;53.750;10.570;2022-07-18T09:53:39;26.20;99.90
14779;DHT22;7481;53.750;10.570;2022-07-18T09:56:09;26.20;99.90
14779;DHT22;7481;53.750;10.570;2022-07-18T09:58:49;26.50;99.90
14779;DHT22;7481;53.750;10.570;2022-07-18T10:01:17;26.80;99.90
14779;DHT22;7481;53.750;10.570;2022-07-18T10:03:45;26.80;99.90
14779;DHT22;7481;53.750;10.570;2022-07-18T10:06:12;26.70;99.90
14779;DHT22;7481;53.750;10.570;2022-07-18T10:08:39;26.50;99.90
14779;DHT22;7481;53.750;10.570;2022-07-18T10:11:07;26.70;99.90
14779;DHT22;7481;53.750;10.570;2022-07-18T10:13:36;27.10;99.90
14779;DHT22;7481;53.750;10.570;2022-07-18T10:16:04;27.20;99.90
14779;DHT22;7481;53.750;10.570;2022-07-18T10:18:33;26.80;99.90
14779;DHT22;7481;53.750;10.570;2022-07-18T10:21:10;27.50;99.90
14779;DHT22;7481;53.750;10.570;2022-07-18T10:23:42;28.20;99.90
14779;DHT22;7481;53.750;10.570;2022-07-18T10:26:26;28.60;99.90
14779;DHT22;7481;53.750;10.570;2022-07-18T10:39:20;29.10;99.90
14779;DHT22;7481;53.750;10.570;2022-07-18T10:57:29;29.50;99.90
14779;DHT22;7481;53.750;10.570;2022-07-18T11:02:31;29.60;99.90
14779;DHT22;7481;53.750;10.570;2022-07-18T11:04:59;29.50;99.90
14779;DHT22;7481;53.750;10.570;2022-07-18T11:07:26;29.90;99.90
14779;DHT22;7481;53.750;10.570;2022-07-18T12:58:12;26.90;99.90
14779;DHT22;7481;53.750;10.570;2022-07-18T13:28:12;27.50;99.90
14779;DHT22;7481;53.750;10.570;2022-07-18T13:30:41;27.60;99.90
14779;DHT22;7481;53.750;10.570;2022-07-18T13:40:33;28.10;99.90
14779;DHT22;7481;53.750;10.570;2022-07-18T19:32:46;22.50;99.90
14779;DHT22;7481;53.750;10.570;2022-07-18T19:35:13;22.30;99.90
14779;DHT22;7481;53.750;10.570;2022-07-18T19:37:43;22.10;99.90
14779;DHT22;7481;53.750;10.570;2022-07-18T19:40:11;22.00;99.90
14779;DHT22;7481;53.750;10.570;2022-07-18T19:42:38;22.10;99.90
14779;DHT22;7481;53.750;10.570;2022-07-18T19:45:06;21.80;99.90
14779;DHT22;7481;53.750;10.570;2022-07-18T19:47:33;21.70;99.90
14779;DHT22;7481;53.750;10.570;2022-07-18T19:50:00;21.60;99.90
14779;DHT22;7481;53.750;10.570;2022-07-18T19:52:27;21.60;99.90
14779;DHT22;7481;53.750;10.570;2022-07-18T19:54:54;21.40;99.90
14779;DHT22;7481;53.750;10.570;2022-07-18T19:57:21;21.30;99.90
14779;DHT22;7481;53.750;10.570;2022-07-18T19:59:48;21.20;99.90
14779;DHT22;7481;53.750;10.570;2022-07-18T20:02:16;21.20;99.90
14779;DHT22;7481;53.750;10.570;2022-07-18T20:04:43;21.20;99.90
14779;DHT22;7481;53.750;10.570;2022-07-18T20:07:10;20.90;99.90
14779;DHT22;7481;53.750;10.570;2022-07-18T20:09:38;20.90;99.90
14779;DHT22;7481;53.750;10.570;2022-07-18T20:12:06;20.80;99.90
14779;DHT22;7481;53.750;10.570;2022-07-18T20:14:33;20.70;99.90
14779;DHT22;7481;53.750;10.570;2022-07-18T20:17:00;20.60;99.90
14779;DHT22;7481;53.750;10.570;2022-07-18T21:58:11;18.70;99.90
14779;DHT22;7481;53.750;10.570;2022-07-18T22:00:38;18.70;99.90
14779;DHT22;7481;53.750;10.570;2022-07-18T22:03:05;18.50;99.90
14779;DHT22;7481;53.750;10.570;2022-07-18T22:05:32;18.50;99.90
14779;DHT22;7481;53.750;10.570;2022-07-18T22:07:59;18.50;99.90
14779;DHT22;7481;53.750;10.570;2022-07-18T22:10:26;18.50;99.90
14779;DHT22;7481;53.750;10.570;2022-07-18T22:12:53;18.40;99.90
14779;DHT22;7481;53.750;10.570;2022-07-18T22:15:20;18.20;99.90
14779;DHT22;7481;53.750;10.570;2022-07-18T22:17:47;18.20;99.90
14779;DHT22;7481;53.750;10.570;2022-07-18T22:20:15;18.10;99.90
14779;DHT22;7481;53.750;10.570;2022-07-18T22:22:43;18.10;99.90
14779;DHT22;7481;53.750;10.570;2022-07-18T22:25:10;18.10;99.90
14779;DHT22;7481;53.750;10.570;2022-07-18T22:27:37;18.10;99.90
14779;DHT22;7481;53.750;10.570;2022-07-18T22:30:06;17.90;99.90
14779;DHT22;7481;53.750;10.570;2022-07-18T22:32:34;17.90;99.90
14779;DHT22;7481;53.750;10.570;2022-07-18T22:35:01;17.70;99.90
14779;DHT22;7481;53.750;10.570;2022-07-18T22:37:33;17.70;99.90
14779;DHT22;7481;53.750;10.570;2022-07-18T22:40:00;17.40;99.90
14779;DHT22;7481;53.750;10.570;2022-07-18T22:42:27;17.60;99.90
14779;DHT22;7481;53.750;10.570;2022-07-18T22:44:54;17.70;99.90
14779;DHT22;7481;53.750;10.570;2022-07-18T22:47:21;17.60;99.90
14779;DHT22;7481;53.750;10.570;2022-07-18T22:49:48;17.60;99.90
14779;DHT22;7481;53.750;10.570;2022-07-18T22:52:15;18.20;99.90
14779;DHT22;7481;53.750;10.570;2022-07-18T22:54:42;16.40;99.90
14779;DHT22;7481;53.750;10.570;2022-07-18T22:57:09;17.50;99.90
14779;DHT22;7481;53.750;10.570;2022-07-18T22:59:36;17.50;99.90
14779;DHT22;7481;53.750;10.570;2022-07-18T23:02:03;17.50;99.90
14779;DHT22;7481;53.750;10.570;2022-07-18T23:04:30;17.50;99.90
14779;DHT22;7481;53.750;10.570;2022-07-18T23:06:57;17.50;99.90
14779;DHT22;7481;53.750;10.570;2022-07-18T23:09:24;17.40;99.90
14779;DHT22;7481;53.750;10.570;2022-07-18T23:11:51;17.50;99.90
14779;DHT22;7481;53.750;10.570;2022-07-18T23:14:18;17.20;99.90
14779;DHT22;7481;53.750;10.570;2022-07-18T23:16:45;17.30;99.90
14779;DHT22;7481;53.750;10.570;2022-07-18T23:19:12;17.30;99.90
14779;DHT22;7481;53.750;10.570;2022-07-18T23:21:39;17.30;99.90
14779;DHT22;7481;53.750;10.570;2022-07-18T23:24:06;17.30;99.90
14779;DHT22;7481;53.750;10.570;2022-07-18T23:26:33;17.10;99.90
14779;DHT22;7481;53.750;10.570;2022-07-18T23:29:00;17.20;99.90
14779;DHT22;7481;53.750;10.570;2022-07-18T23:31:27;17.20;99.90
14779;DHT22;7481;53.750;10.570;2022-07-18T23:33:54;17.10;99.90
14779;DHT22;7481;53.750;10.570;2022-07-18T23:36:21;17.10;99.90
14779;DHT22;7481;53.750;10.570;2022-07-18T23:38:48;17.00;99.90
14779;DHT22;7481;53.750;10.570;2022-07-18T23:41:15;17.00;99.90
14779;DHT22;7481;53.750;10.570;2022-07-18T23:43:42;17.10;99.90
14779;DHT22;7481;53.750;10.570;2022-07-18T23:46:09;17.00;99.90
14779;DHT22;7481;53.750;10.570;2022-07-18T23:48:36;17.00;99.90
14779;DHT22;7481;53.750;10.570;2022-07-18T23:51:03;16.60;99.90
14779;DHT22;7481;53.750;10.570;2022-07-18T23:53:31;16.90;99.90
14779;DHT22;7481;53.750;10.570;2022-07-18T23:55:58;16.80;99.90
14779;DHT22;7481;53.750;10.570;2022-07-18T23:58:25;16.60;99.90
